Observation data for Seminole on 05/14/2018      Previous  Date  Next       Current Mesonet Observations  Soil Data  Daily Summary Page  Observations in Plain Language
KSM1 140500Z 20010G15KT 26/12 A2995 RMK A01 T02560124  RH  046%=      5-min Rain = 0
KSM1 140505Z 20011G16KT 26/13 A2995 RMK A01 T02550125  RH  046%=      5-min Rain = 0
KSM1 140510Z 20010KT 25/13 A2995 RMK A01 T02540126  RH  047%=      5-min Rain = 0
KSM1 140515Z 20010KT 25/13 A2995 RMK A01 T02530126  RH  047%=      5-min Rain = 0
KSM1 140520Z 20009KT 25/13 A2995 RMK A01 T02510127  RH  048%=      5-min Rain = 0
KSM1 140525Z 20010KT 25/13 A2996 RMK A01 T02500127  RH  048%=      5-min Rain = 0
KSM1 140530Z 20010KT 25/13 A2996 RMK A01 T02490128  RH  049%=      5-min Rain = 0
KSM1 140535Z 21010KT 25/13 A2996 RMK A01 T02480127  RH  049%=      5-min Rain = 0
KSM1 140540Z 20010KT 25/13 A2996 RMK A01 T02470127  RH  049%=      5-min Rain = 0
KSM1 140545Z 20010KT 25/13 A2996 RMK A01 T02450129  RH  050%=      5-min Rain = 0
KSM1 140550Z 19010KT 24/13 A2996 RMK A01 T02440132  RH  052%=      5-min Rain = 0
KSM1 140555Z 19009KT 24/13 A2996 RMK A01 T02420133  RH  053%=      5-min Rain = 0
KSM1 140600Z 18011KT 24/14 A2996 RMK A01 T02410137  RH  054%=      5-min Rain = 0
KSM1 140605Z 18011KT 24/14 A2996 RMK A01 T02400140  RH  056%=      5-min Rain = 0
KSM1 140610Z 18010G15KT 24/14 A2996 RMK A01 T02390142  RH  057%=      5-min Rain = 0
KSM1 140615Z 18010KT 24/14 A2996 RMK A01 T02380143  RH  058%=      5-min Rain = 0
KSM1 140620Z 18010KT 24/14 A2996 RMK A01 T02370143  RH  058%=      5-min Rain = 0
KSM1 140625Z 18009KT 24/14 A2996 RMK A01 T02350143  RH  059%=      5-min Rain = 0
KSM1 140630Z 18009KT 23/14 A2996 RMK A01 T02340143  RH  059%=      5-min Rain = 0
KSM1 140635Z 18007KT 23/14 A2996 RMK A01 T02320143  RH  060%=      5-min Rain = 0
KSM1 140640Z 18007KT 23/14 A2996 RMK A01 T02300143  RH  061%=      5-min Rain = 0
KSM1 140645Z 19006KT 23/14 A2996 RMK A01 T02280143  RH  061%=      5-min Rain = 0
KSM1 140650Z 19006KT 23/14 A2996 RMK A01 T02260144  RH  062%=      5-min Rain = 0
KSM1 140655Z 19007KT 23/14 A2996 RMK A01 T02260144  RH  063%=      5-min Rain = 0
KSM1 140700Z 18007KT 23/15 A2996 RMK A01 T02260145  RH  063%=      5-min Rain = 0
KSM1 140705Z 18008KT 23/15 A2996 RMK A01 T02260145  RH  063%=      5-min Rain = 0
KSM1 140710Z 18007KT 23/15 A2996 RMK A01 T02260145  RH  063%=      5-min Rain = 0
KSM1 140715Z 18006KT 22/15 A2995 RMK A01 T02240145  RH  063%=      5-min Rain = 0
KSM1 140720Z 18006KT 22/15 A2995 RMK A01 T02220145  RH  064%=      5-min Rain = 0
KSM1 140725Z 17005KT 22/14 A2995 RMK A01 T02200144  RH  065%=      5-min Rain = 0
KSM1 140730Z 18004KT 22/14 A2995 RMK A01 T02180144  RH  066%=      5-min Rain = 0
KSM1 140735Z 19003KT 22/14 A2995 RMK A01 T02150143  RH  066%=      5-min Rain = 0
KSM1 140740Z 19003KT 21/14 A2995 RMK A01 T02130144  RH  067%=      5-min Rain = 0
KSM1 140745Z 20003KT 21/14 A2995 RMK A01 T02120144  RH  068%=      5-min Rain = 0
KSM1 140750Z 21004KT 21/14 A2995 RMK A01 T02130144  RH  068%=      5-min Rain = 0
KSM1 140755Z 22004KT 21/14 A2995 RMK A01 T02140144  RH  067%=      5-min Rain = 0
KSM1 140800Z 22004KT 21/14 A2995 RMK A01 T02140144  RH  067%=      5-min Rain = 0
KSM1 140805Z 21003KT 21/14 A2995 RMK A01 T02130144  RH  068%=      5-min Rain = 0
KSM1 140810Z 21003KT 21/15 A2995 RMK A01 T02130145  RH  068%=      5-min Rain = 0
KSM1 140815Z 21002KT 21/15 A2994 RMK A01 T02120145  RH  068%=      5-min Rain = 0
KSM1 140820Z 21003KT 21/14 A2994 RMK A01 T02120144  RH  068%=      5-min Rain = 0
KSM1 140825Z 23003KT 21/14 A2994 RMK A01 T02120144  RH  068%=      5-min Rain = 0
KSM1 140830Z 23003KT 21/14 A2994 RMK A01 T02120144  RH  068%=      5-min Rain = 0
KSM1 140835Z 23003KT 21/14 A2994 RMK A01 T02110144  RH  068%=      5-min Rain = 0
KSM1 140840Z 24003KT 21/14 A2994 RMK A01 T02110143  RH  068%=      5-min Rain = 0
KSM1 140845Z 24002KT 21/14 A2994 RMK A01 T02090143  RH  068%=      5-min Rain = 0
KSM1 140850Z 24002KT 21/14 A2994 RMK A01 T02080139  RH  068%=      5-min Rain = 0
KSM1 140855Z 24002KT 20/13 A2994 RMK A01 T02020134  RH  068%=      5-min Rain = 0
KSM1 140900Z 25002KT 20/13 A2994 RMK A01 T01980134  RH  070%=      5-min Rain = 0
KSM1 140905Z 26002KT 20/14 A2994 RMK A01 T01960135  RH  071%=      5-min Rain = 0
KSM1 140910Z 26002KT 19/13 A2994 RMK A01 T01940134  RH  071%=      5-min Rain = 0
KSM1 140915Z 26001KT 19/13 A2995 RMK A01 T01920133  RH  072%=      5-min Rain = 0
KSM1 140920Z 26001KT 19/13 A2995 RMK A01 T01880132  RH  073%=      5-min Rain = 0
KSM1 140925Z 26001KT 19/14 A2995 RMK A01 T01860135  RH  075%=      5-min Rain = 0
KSM1 140930Z 26001KT 19/14 A2995 RMK A01 T01870136  RH  075%=      5-min Rain = 0
KSM1 140935Z 26001KT 19/14 A2995 RMK A01 T01870135  RH  075%=      5-min Rain = 0
KSM1 140940Z 26000KT 19/14 A2995 RMK A01 T01870135  RH  075%=      5-min Rain = 0
KSM1 140945Z 26000KT 19/14 A2995 RMK A01 T01860136  RH  076%=      5-min Rain = 0
KSM1 140950Z 26000KT 18/14 A2995 RMK A01 T01840136  RH  077%=      5-min Rain = 0
KSM1 140955Z 19001KT 18/13 A2995 RMK A01 T01830133  RH  076%=      5-min Rain = 0
KSM1 141000Z 17001KT 18/12 A2995 RMK A01 T01780120  RH  072%=      5-min Rain = 0
KSM1 141005Z 14002KT 17/12 A2995 RMK A01 T01720120  RH  075%=      5-min Rain = 0
KSM1 141010Z 14001KT 17/12 A2995 RMK A01 T01700124  RH  077%=      5-min Rain = 0
KSM1 141015Z 14002KT 17/13 A2995 RMK A01 T01710129  RH  079%=      5-min Rain = 0
KSM1 141020Z 12003KT 17/13 A2995 RMK A01 T01730127  RH  077%=      5-min Rain = 0
KSM1 141025Z 12003KT 17/13 A2995 RMK A01 T01730126  RH  077%=      5-min Rain = 0
KSM1 141030Z 12003KT 17/13 A2995 RMK A01 T01720126  RH  078%=      5-min Rain = 0
KSM1 141035Z 10003KT 17/13 A2995 RMK A01 T01700125  RH  078%=      5-min Rain = 0
KSM1 141040Z 10004KT 17/13 A2995 RMK A01 T01700126  RH  078%=      5-min Rain = 0
KSM1 141045Z 09005KT 17/13 A2995 RMK A01 T01700128  RH  079%=      5-min Rain = 0
KSM1 141050Z 08005KT 17/13 A2995 RMK A01 T01700129  RH  080%=      5-min Rain = 0
KSM1 141055Z 08004KT 17/13 A2995 RMK A01 T01700131  RH  081%=      5-min Rain = 0
KSM1 141100Z 09004KT 17/13 A2995 RMK A01 T01700131  RH  081%=      5-min Rain = 0
KSM1 141105Z 09004KT 17/13 A2995 RMK A01 T01690129  RH  080%=      5-min Rain = 0
KSM1 141110Z 10005KT 17/13 A2995 RMK A01 T01680126  RH  080%=      5-min Rain = 0
KSM1 141115Z 10005KT 17/13 A2996 RMK A01 T01650126  RH  081%=      5-min Rain = 0
KSM1 141120Z 10006KT 17/13 A2996 RMK A01 T01650128  RH  082%=      5-min Rain = 0
KSM1 141125Z 09007KT 17/13 A2996 RMK A01 T01670130  RH  082%=      5-min Rain = 0
KSM1 141130Z 09007KT 17/13 A2996 RMK A01 T01680130  RH  082%=      5-min Rain = 0
KSM1 141135Z 09007KT 17/13 A2996 RMK A01 T01680130  RH  081%=      5-min Rain = 0
KSM1 141140Z 09007KT 17/13 A2996 RMK A01 T01660127  RH  081%=      5-min Rain = 0
KSM1 141145Z 09007KT 16/13 A2996 RMK A01 T01640128  RH  083%=      5-min Rain = 0
KSM1 141150Z 09007KT 17/13 A2996 RMK A01 T01650130  RH  083%=      5-min Rain = 0
KSM1 141155Z 10007KT 17/13 A2996 RMK A01 T01670132  RH  083%=      5-min Rain = 0
KSM1 141200Z 11007KT 17/14 A2997 RMK A01 T01720138  RH  084%=      5-min Rain = 0
KSM1 141205Z 11007KT 18/14 A2997 RMK A01 T01750137  RH  081%=      5-min Rain = 0
KSM1 141210Z 11007KT 18/14 A2997 RMK A01 T01750137  RH  082%=      5-min Rain = 0
KSM1 141215Z 12006KT 18/14 A2997 RMK A01 T01750137  RH  082%=      5-min Rain = 0
KSM1 141220Z 13005KT 17/14 A2998 RMK A01 T01740137  RH  082%=      5-min Rain = 0
KSM1 141225Z 13004KT 17/14 A2998 RMK A01 T01730137  RH  083%=      5-min Rain = 0
KSM1 141230Z 13004KT 17/14 A2998 RMK A01 T01720137  RH  083%=      5-min Rain = 0
KSM1 141235Z 12004KT 17/14 A2998 RMK A01 T01710138  RH  084%=      5-min Rain = 0
KSM1 141240Z 13005KT 17/14 A2998 RMK A01 T01720140  RH  085%=      5-min Rain = 0
KSM1 141245Z 13004KT 18/14 A2998 RMK A01 T01760142  RH  084%=      5-min Rain = 0
KSM1 141250Z 14004KT 18/14 A2998 RMK A01 T01810143  RH  082%=      5-min Rain = 0
KSM1 141255Z 20003KT 19/14 A30 RMK A01 T01850142  RH  080%=      5-min Rain = 0
KSM1 141300Z 12002KT 19/14 A2999 RMK A01 T01890143  RH  078%=      5-min Rain = 0
KSM1 141305Z 12003KT 19/15 A2999 RMK A01 T01940145  RH  077%=      5-min Rain = 0
KSM1 141310Z 12004KT 20/15 A2999 RMK A01 T01970147  RH  076%=      5-min Rain = 0
KSM1 141315Z 12003KT 20/15 A30 RMK A01 T02010149  RH  075%=      5-min Rain = 0
KSM1 141320Z 12004KT 20/15 A30 RMK A01 T02040150  RH  074%=      5-min Rain = 0
KSM1 141325Z 13003KT 21/15 A30 RMK A01 T02080151  RH  073%=      5-min Rain = 0
KSM1 141330Z 14005KT 21/15 A30 RMK A01 T02120152  RH  072%=      5-min Rain = 0
KSM1 141335Z 13006KT 22/15 A30 RMK A01 T02160153  RH  071%=      5-min Rain = 0
KSM1 141340Z 14005KT 22/15 A30 RMK A01 T02200154  RH  069%=      5-min Rain = 0
KSM1 141345Z 13006KT 22/15 A30 RMK A01 T02240154  RH  068%=      5-min Rain = 0
KSM1 141350Z 15006KT 23/15 A30 RMK A01 T02260154  RH  067%=      5-min Rain = 0
KSM1 141355Z 16007KT 23/15 A30 RMK A01 T02270154  RH  066%=      5-min Rain = 0
KSM1 141400Z 16006KT 23/15 A30 RMK A01 T02270154  RH  066%=      5-min Rain = 0
KSM1 141405Z 16007KT 23/15 A30 RMK A01 T02260153  RH  066%=      5-min Rain = 0
KSM1 141410Z 17007KT 23/15 A2999 RMK A01 T02260153  RH  066%=      5-min Rain = 0
KSM1 141415Z 17007KT 23/15 A2999 RMK A01 T02260152  RH  066%=      5-min Rain = 0
KSM1 141420Z 16009KT 23/15 A2999 RMK A01 T02280153  RH  065%=      5-min Rain = 0
KSM1 141425Z 18009KT 23/15 A30 RMK A01 T02280152  RH  065%=      5-min Rain = 0
KSM1 141430Z 17008KT 23/15 A30 RMK A01 T02290152  RH  065%=      5-min Rain = 0
KSM1 141435Z 18007KT 23/15 A30 RMK A01 T02310152  RH  064%=      5-min Rain = 0
KSM1 141440Z 17007KT 23/15 A30 RMK A01 T02340153  RH  063%=      5-min Rain = 0
KSM1 141445Z 17007KT 23/15 A30 RMK A01 T02330152  RH  063%=      5-min Rain = 0
KSM1 141450Z 18008KT 23/15 A30 RMK A01 T02330151  RH  063%=      5-min Rain = 0
KSM1 141455Z 18008KT 23/15 A3001 RMK A01 T02320151  RH  063%=      5-min Rain = 0
KSM1 141500Z 18007KT 23/15 A3001 RMK A01 T02320151  RH  063%=      5-min Rain = 0
KSM1 141505Z 18008KT 23/15 A3001 RMK A01 T02340151  RH  062%=      5-min Rain = 0
KSM1 141510Z 19007KT 23/15 A3001 RMK A01 T02340151  RH  062%=      5-min Rain = 0
KSM1 141515Z 18006KT 24/15 A3001 RMK A01 T02350151  RH  062%=      5-min Rain = 0
KSM1 141520Z 18008KT 24/15 A3001 RMK A01 T02360150  RH  061%=      5-min Rain = 0
KSM1 141525Z 19006KT 24/15 A3001 RMK A01 T02370150  RH  061%=      5-min Rain = 0
KSM1 141530Z 18008KT 24/15 A3001 RMK A01 T02370148  RH  060%=      5-min Rain = 0
KSM1 141535Z 18009KT 24/15 A3002 RMK A01 T02370149  RH  060%=      5-min Rain = 0
KSM1 141540Z 18010KT 24/15 A3002 RMK A01 T02370149  RH  060%=      5-min Rain = 0
KSM1 141545Z 20011KT 24/15 A3002 RMK A01 T02380148  RH  060%=      5-min Rain = 0
KSM1 141550Z 20013KT 24/15 A3002 RMK A01 T02410148  RH  058%=      5-min Rain = 0
KSM1 141555Z 20012KT 24/15 A3002 RMK A01 T02440148  RH  058%=      5-min Rain = 0
KSM1 141600Z 20009KT 25/15 A3001 RMK A01 T02490148  RH  056%=      5-min Rain = 0
KSM1 141605Z 21009G14KT 25/15 A3001 RMK A01 T02490145  RH  055%=      5-min Rain = 0
KSM1 141610Z 21010KT 25/15 A3001 RMK A01 T02480146  RH  055%=      5-min Rain = 0
KSM1 141615Z 20009G14KT 25/15 A3001 RMK A01 T02510146  RH  055%=      5-min Rain = 0
KSM1 141620Z 20010KT 26/15 A3001 RMK A01 T02550147  RH  054%=      5-min Rain = 0
KSM1 141625Z 20011KT 26/15 A3001 RMK A01 T02570146  RH  053%=      5-min Rain = 0
KSM1 141630Z 22010KT 25/15 A3001 RMK A01 T02540147  RH  054%=      5-min Rain = 0
KSM1 141635Z 22008G13KT 26/15 A3001 RMK A01 T02560146  RH  053%=      5-min Rain = 0
KSM1 141640Z 21009KT 26/14 A3001 RMK A01 T02560144  RH  052%=      5-min Rain = 0
KSM1 141645Z 22007KT 26/14 A3001 RMK A01 T02570143  RH  051%=      5-min Rain = 0
KSM1 141650Z 22008KT 26/14 A3001 RMK A01 T02590141  RH  050%=      5-min Rain = 0
KSM1 141655Z 21008KT 26/14 A3001 RMK A01 T02640139  RH  048%=      5-min Rain = 0
KSM1 141700Z 21008KT 27/14 A3001 RMK A01 T02730138  RH  045%=      5-min Rain = 0
KSM1 141705Z 21009KT 27/13 A3001 RMK A01 T02710134  RH  045%=      5-min Rain = 0
KSM1 141710Z 22008KT 27/13 A3001 RMK A01 T02740134  RH  044%=      5-min Rain = 0
KSM1 141715Z 24008KT 28/13 A30 RMK A01 T02750131  RH  043%=      5-min Rain = 0
KSM1 141720Z 21007KT 28/13 A30 RMK A01 T02750132  RH  043%=      5-min Rain = 0
KSM1 141725Z 21009KT 28/13 A30 RMK A01 T02750128  RH  042%=      5-min Rain = 0
KSM1 141730Z 21008KT 27/12 A30 RMK A01 T02720124  RH  042%=      5-min Rain = 0
KSM1 141735Z 21008KT 27/13 A30 RMK A01 T02720125  RH  042%=      5-min Rain = 0
KSM1 141740Z 21008KT 27/12 A30 RMK A01 T02710123  RH  041%=      5-min Rain = 0
KSM1 141745Z 21008KT 27/12 A30 RMK A01 T02730122  RH  041%=      5-min Rain = 0
KSM1 141750Z 23009KT 27/12 A30 RMK A01 T02730121  RH  040%=      5-min Rain = 0
KSM1 141755Z 23008KT 27/12 A30 RMK A01 T02730124  RH  041%=      5-min Rain = 0
KSM1 141800Z 24011KT 27/13 A30 RMK A01 T02730126  RH  042%=      5-min Rain = 0
KSM1 141805Z 24012KT 28/13 A30 RMK A01 T02790125  RH  040%=      5-min Rain = 0
KSM1 141810Z 24011G16KT 28/12 A30 RMK A01 T02810123  RH  039%=      5-min Rain = 0
KSM1 141815Z 22010KT 28/12 A30 RMK A01 T02800121  RH  039%=      5-min Rain = 0
KSM1 141820Z 21008KT 28/11 A30 RMK A01 T02800112  RH  037%=      5-min Rain = 0
KSM1 141825Z 21010KT 29/10 A30 RMK A01 T02850100  RH  033%=      5-min Rain = 0
KSM1 141830Z 22010KT 29/09 A30 RMK A01 T02880088  RH  029%=      5-min Rain = 0
KSM1 141835Z 21009KT 29/07 A2999 RMK A01 T02920067  RH  025%=      5-min Rain = 0
KSM1 141840Z 22009KT 29/07 A2999 RMK A01 T02940065  RH  024%=      5-min Rain = 0
KSM1 141845Z 22009G14KT 30/06 A2999 RMK A01 T03000063  RH  023%=      5-min Rain = 0
KSM1 141850Z 22008KT 30/06 A2999 RMK A01 T03000062  RH  023%=      5-min Rain = 0
KSM1 141855Z 23007KT 30/06 A2999 RMK A01 T03020059  RH  022%=      5-min Rain = 0
KSM1 141900Z 23008KT 31/06 A2999 RMK A01 T03060059  RH  022%=      5-min Rain = 0
KSM1 141905Z 21007G12KT 30/06 A2999 RMK A01 T03040056  RH  021%=      5-min Rain = 0
KSM1 141910Z 21008KT 31/05 A2998 RMK A01 T03050051  RH  021%=      5-min Rain = 0
KSM1 141915Z 20007KT 30/05 A2998 RMK A01 T03040051  RH  021%=      5-min Rain = 0
KSM1 141920Z 22009KT 31/04 A2998 RMK A01 T03050036  RH  018%=      5-min Rain = 0
KSM1 141925Z 18008KT 31/04 A2998 RMK A01 T03070039  RH  019%=      5-min Rain = 0
KSM1 141930Z 19007G12KT 31/04 A2997 RMK A01 T03070040  RH  019%=      5-min Rain = 0
KSM1 141935Z 19012G17KT 31/03 A2997 RMK A01 T03110031  RH  017%=      5-min Rain = 0
KSM1 141940Z 20014KT 31/03 A2997 RMK A01 T03130027  RH  017%=      5-min Rain = 0
KSM1 141945Z 20015KT 31/02 A2997 RMK A01 T03060024  RH  017%=      5-min Rain = 0
KSM1 141950Z 20012G17KT 31/02 A2997 RMK A01 T03110021  RH  016%=      5-min Rain = 0
KSM1 141955Z 22011G16KT 32/02 A2996 RMK A01 T03150019  RH  015%=      5-min Rain = 0
KSM1 142000Z 21011KT 32/02 A2996 RMK A01 T03160018  RH  015%=      5-min Rain = 0
KSM1 142005Z 19009G14KT 31/03 A2996 RMK A01 T03140026  RH  016%=      5-min Rain = 0
KSM1 142010Z 18010KT 32/02 A2995 RMK A01 T03190021  RH  015%=      5-min Rain = 0
KSM1 142015Z 20010G17KT 33/02 A2995 RMK A01 T03250024  RH  015%=      5-min Rain = 0
KSM1 142020Z 22009G16KT 32/03 A2995 RMK A01 T03230028  RH  016%=      5-min Rain = 0
KSM1 142025Z 20010G16KT 32/03 A2995 RMK A01 T03180032  RH  017%=      5-min Rain = 0
KSM1 142030Z 21011KT 32/03 A2995 RMK A01 T03180028  RH  016%=      5-min Rain = 0
KSM1 142035Z 22012KT 32/03 A2994 RMK A01 T03160029  RH  017%=      5-min Rain = 0
KSM1 142040Z 21012KT 31/03 A2994 RMK A01 T03130028  RH  017%=      5-min Rain = 0
KSM1 142045Z 21012KT 31/03 A2994 RMK A01 T03090028  RH  017%=      5-min Rain = 0
KSM1 142050Z 21010KT 31/03 A2994 RMK A01 T03110026  RH  017%=      5-min Rain = 0
KSM1 142055Z 20011G16KT 32/02 A2993 RMK A01 T03190023  RH  015%=      5-min Rain = 0
KSM1 142100Z 20012KT 32/02 A2993 RMK A01 T03230018  RH  015%=      5-min Rain = 0
KSM1 142105Z 20010G17KT 32/02 A2993 RMK A01 T03220017  RH  015%=      5-min Rain = 0
KSM1 142110Z 22012G17KT 31/01 A2992 RMK A01 T03140012  RH  015%=      5-min Rain = 0
KSM1 142115Z 21010G16KT 32/01 A2992 RMK A01 T03170012  RH  014%=      5-min Rain = 0
KSM1 142120Z 21011G16KT 32/01 A2991 RMK A01 T03240010  RH  014%=      5-min Rain = 0
KSM1 142125Z 22010KT 33/01 A2991 RMK A01 T03270009  RH  013%=      5-min Rain = 0
KSM1 142130Z 23007G14KT 33/01 A2991 RMK A01 T03250008  RH  013%=      5-min Rain = 0
KSM1 142135Z 23010KT 33/01 A299 RMK A01 T03300009  RH  013%=      5-min Rain = 0
KSM1 142140Z 23010G15KT 33/01 A299 RMK A01 T03270009  RH  013%=      5-min Rain = 0
KSM1 142145Z 20012G19KT 33/01 A299 RMK A01 T03320009  RH  013%=      5-min Rain = 0
KSM1 142150Z 20012G18KT 33/01 A299 RMK A01 T03310007  RH  013%=      5-min Rain = 0
KSM1 142155Z 18010KT 33/01 A2989 RMK A01 T03320009  RH  013%=      5-min Rain = 0
KSM1 142200Z 20012G17KT 33/01 A2989 RMK A01 T03330013  RH  013%=      5-min Rain = 0
KSM1 142205Z 20012G17KT 34/02 A2989 RMK A01 T03350015  RH  013%=      5-min Rain = 0
KSM1 142210Z 21015G21KT 33/02 A2988 RMK A01 T03340016  RH  014%=      5-min Rain = 0
KSM1 142215Z 20014G19KT 33/02 A2988 RMK A01 T03300016  RH  014%=      5-min Rain = 0
KSM1 142220Z 19014G21KT 33/02 A2988 RMK A01 T03300015  RH  014%=      5-min Rain = 0
KSM1 142225Z 19013G18KT 33/01 A2988 RMK A01 T03310012  RH  013%=      5-min Rain = 0
KSM1 142230Z 19013G20KT 33/01 A2988 RMK A01 T03320012  RH  013%=      5-min Rain = 0
KSM1 142235Z 20013G20KT 33/01 A2988 RMK A01 T03290010  RH  013%=      5-min Rain = 0
KSM1 142240Z 20011G17KT 33/01 A2988 RMK A01 T03300008  RH  013%=      5-min Rain = 0
KSM1 142245Z 22011G18KT 33/01 A2987 RMK A01 T03320013  RH  013%=      5-min Rain = 0
KSM1 142250Z 19013G19KT 33/02 A2987 RMK A01 T03320015  RH  014%=      5-min Rain = 0
KSM1 142255Z 19014KT 33/02 A2987 RMK A01 T03280017  RH  014%=      5-min Rain = 0
KSM1 142300Z 19011G16KT 33/02 A2987 RMK A01 T03280016  RH  014%=      5-min Rain = 0
KSM1 142305Z 20012G17KT 33/02 A2987 RMK A01 T03280015  RH  014%=      5-min Rain = 0
KSM1 142310Z 20014G19KT 33/02 A2987 RMK A01 T03280019  RH  014%=      5-min Rain = 0
KSM1 142315Z 20013KT 33/02 A2988 RMK A01 T03280020  RH  014%=      5-min Rain = 0
KSM1 142320Z 20013G18KT 33/03 A2988 RMK A01 T03260026  RH  015%=      5-min Rain = 0
KSM1 142325Z 20015G20KT 33/03 A2987 RMK A01 T03250028  RH  016%=      5-min Rain = 0
KSM1 142330Z 20013KT 32/03 A2987 RMK A01 T03230031  RH  016%=      5-min Rain = 0
KSM1 142335Z 18016G22KT 32/03 A2987 RMK A01 T03230031  RH  016%=      5-min Rain = 0
KSM1 142340Z 19014KT 32/03 A2987 RMK A01 T03220034  RH  016%=      5-min Rain = 0
KSM1 142345Z 19016G21KT 32/03 A2987 RMK A01 T03210034  RH  017%=      5-min Rain = 0
KSM1 142350Z 20013KT 32/04 A2987 RMK A01 T03200036  RH  017%=      5-min Rain = 0
KSM1 142355Z 19014KT 32/04 A2987 RMK A01 T03190036  RH  017%=      5-min Rain = 0
KSM1 150000Z 20015KT 32/04 A2987 RMK A01 T03180042  RH  018%=      5-min Rain = 0
KSM1 150005Z 19014KT 32/05 A2987 RMK A01 T03170045  RH  018%=      5-min Rain = 0
KSM1 150010Z 19013G18KT 32/05 A2987 RMK A01 T03170045  RH  018%=      5-min Rain = 0
KSM1 150015Z 20013KT 32/05 A2987 RMK A01 T03160047  RH  019%=      5-min Rain = 0
KSM1 150020Z 20012G17KT 32/05 A2987 RMK A01 T03150047  RH  019%=      5-min Rain = 0
KSM1 150025Z 20013G18KT 31/05 A2987 RMK A01 T03140046  RH  019%=      5-min Rain = 0
KSM1 150030Z 20012KT 31/04 A2987 RMK A01 T03120044  RH  019%=      5-min Rain = 0
KSM1 150035Z 19012KT 31/05 A2987 RMK A01 T03120049  RH  019%=      5-min Rain = 0
KSM1 150040Z 20013G18KT 31/05 A2986 RMK A01 T03110053  RH  020%=      5-min Rain = 0
KSM1 150045Z 21012KT 31/05 A2986 RMK A01 T03100052  RH  020%=      5-min Rain = 0
KSM1 150050Z 21013KT 31/05 A2986 RMK A01 T03090051  RH  020%=      5-min Rain = 0
KSM1 150055Z 20013KT 31/05 A2986 RMK A01 T03080050  RH  020%=      5-min Rain = 0
KSM1 150100Z 20012G17KT 31/05 A2986 RMK A01 T03070049  RH  020%=      5-min Rain = 0
KSM1 150105Z 19012KT 31/05 A2987 RMK A01 T03060049  RH  020%=      5-min Rain = 0
KSM1 150110Z 19012G17KT 30/05 A2987 RMK A01 T03040051  RH  021%=      5-min Rain = 0
KSM1 150115Z 19012KT 30/05 A2987 RMK A01 T03020052  RH  021%=      5-min Rain = 0
KSM1 150120Z 19011KT 30/05 A2987 RMK A01 T03010052  RH  021%=      5-min Rain = 0
KSM1 150125Z 19011KT 30/05 A2987 RMK A01 T02990052  RH  021%=      5-min Rain = 0
KSM1 150130Z 19011KT 30/05 A2987 RMK A01 T02970051  RH  022%=      5-min Rain = 0
KSM1 150135Z 19010KT 30/05 A2987 RMK A01 T02950051  RH  022%=      5-min Rain = 0
KSM1 150140Z 20009KT 29/05 A2987 RMK A01 T02930052  RH  022%=      5-min Rain = 0
KSM1 150145Z 19009KT 29/05 A2987 RMK A01 T02910052  RH  022%=      5-min Rain = 0
KSM1 150150Z 20008KT 29/05 A2987 RMK A01 T02890052  RH  023%=      5-min Rain = 0
KSM1 150155Z 19007KT 29/05 A2988 RMK A01 T02860053  RH  023%=      5-min Rain = 0
KSM1 150200Z 19007KT 28/05 A2988 RMK A01 T02830053  RH  024%=      5-min Rain = 0
KSM1 150205Z 19006KT 28/05 A2988 RMK A01 T02790053  RH  024%=      5-min Rain = 0
KSM1 150210Z 19007KT 28/05 A2988 RMK A01 T02750053  RH  025%=      5-min Rain = 0
KSM1 150215Z 18007KT 27/05 A2988 RMK A01 T02720054  RH  025%=      5-min Rain = 0
KSM1 150220Z 18007KT 27/05 A2989 RMK A01 T02690054  RH  026%=      5-min Rain = 0
KSM1 150225Z 17008KT 27/05 A2989 RMK A01 T02680054  RH  026%=      5-min Rain = 0
KSM1 150230Z 16008KT 27/05 A2989 RMK A01 T02680053  RH  026%=      5-min Rain = 0
KSM1 150235Z 16007KT 26/05 A299 RMK A01 T02630054  RH  027%=      5-min Rain = 0
KSM1 150240Z 16007KT 26/06 A299 RMK A01 T02570055  RH  028%=      5-min Rain = 0
KSM1 150245Z 16006KT 25/06 A299 RMK A01 T02520055  RH  029%=      5-min Rain = 0
KSM1 150250Z 16007KT 25/05 A299 RMK A01 T02490054  RH  029%=      5-min Rain = 0
KSM1 150255Z 17007KT 25/05 A2991 RMK A01 T02490053  RH  029%=      5-min Rain = 0
KSM1 150300Z 17008KT 25/05 A2991 RMK A01 T02500052  RH  029%=      5-min Rain = 0
KSM1 150305Z 17009KT 25/05 A2991 RMK A01 T02510049  RH  028%=      5-min Rain = 0
KSM1 150310Z 17009KT 25/05 A2991 RMK A01 T02520047  RH  027%=      5-min Rain = 0
KSM1 150315Z 16008KT 25/05 A2991 RMK A01 T02520045  RH  027%=      5-min Rain = 0
KSM1 150320Z 15007KT 25/05 A2991 RMK A01 T02490046  RH  028%=      5-min Rain = 0
KSM1 150325Z 15007KT 24/05 A2991 RMK A01 T02440047  RH  029%=      5-min Rain = 0
KSM1 150330Z 15007KT 24/05 A2992 RMK A01 T02390047  RH  030%=      5-min Rain = 0
KSM1 150335Z 16007KT 24/05 A2992 RMK A01 T02360047  RH  030%=      5-min Rain = 0
KSM1 150340Z 16007KT 23/05 A2992 RMK A01 T02340047  RH  030%=      5-min Rain = 0
KSM1 150345Z 16007KT 23/05 A2992 RMK A01 T02330046  RH  030%=      5-min Rain = 0
KSM1 150350Z 16006KT 23/05 A2992 RMK A01 T02310046  RH  031%=      5-min Rain = 0
KSM1 150355Z 15007KT 23/05 A2993 RMK A01 T02300047  RH  031%=      5-min Rain = 0
KSM1 150400Z 12008KT 23/05 A2994 RMK A01 T02260051  RH  033%=      5-min Rain = 0
KSM1 150405Z 13009KT 22/05 A2994 RMK A01 T02210049  RH  033%=      5-min Rain = 0
KSM1 150410Z 14011KT 23/05 A2994 RMK A01 T02250047  RH  032%=      5-min Rain = 0
KSM1 150415Z 14011KT 23/05 A2994 RMK A01 T02300047  RH  031%=      5-min Rain = 0
KSM1 150420Z 15011KT 23/05 A2994 RMK A01 T02310049  RH  031%=      5-min Rain = 0
KSM1 150425Z 16013KT 24/06 A2994 RMK A01 T02350055  RH  032%=      5-min Rain = 0
KSM1 150430Z 16014KT 24/07 A2994 RMK A01 T02370071  RH  035%=      5-min Rain = 0
KSM1 150435Z 16015KT 24/09 A2994 RMK A01 T02360087  RH  040%=      5-min Rain = 0
KSM1 150440Z 16015KT 23/10 A2994 RMK A01 T02340099  RH  044%=      5-min Rain = 0
KSM1 150445Z 16014G19KT 23/11 A2994 RMK A01 T02320108  RH  047%=      5-min Rain = 0
KSM1 150450Z 16013KT 23/11 A2995 RMK A01 T02300114  RH  050%=      5-min Rain = 0
KSM1 150455Z 16013G18KT 23/12 A2995 RMK A01 T02290123  RH  053%=      5-min Rain = 0

Page generated in 0.0246 seconds.